Meteo Giornale » Osservazioni meteo Turkmenistan » Dashoguz
ore: 22:00 - Osservazioni Meteo Dashoguz
Lat. 41° 46' N Lon. 59° 50' E Alt. 83 metri s.l.m.
21 °C
Sereno
Temp. 24 Ore
18 °C
29 °C
Nord-Est
14.8 Km/h
Dew point -1 °C
Umidità 22 %
Visibilità 10 Km
Il sole sorge alle ore 06:25
Il sole tramonta alle ore 19:36
| Data e Ora | Cielo e Fenomeni | T °C | DP °C | Um. % | Pres. hPa | Vis. km | Vento km/h | |
|---|---|---|---|---|---|---|---|---|
| Oggi h: 22:00 | Sereno | 21 | -1 | 22 | 1017 | 10 | NE 14.8 | |
| Oggi h: 21:00 | Sereno | 22 | -1 | 21 | 1017 | 10 | NE 18.5 | |
| Oggi h: 20:00 | Sereno | 23 | -1 | 20 | 1017 | 10 | NE 14.8 | |
| Oggi h: 19:00 | Sereno | 26 | -3 | 14 | 1016 | 10 | NE 22.2 | |
| Oggi h: 18:00 | Sereno | 28 | -3 | 12 | 1016 | 10 | NE 29.6 | |
| Oggi h: 17:00 | Sereno | 29 | -3 | 12 | 1016 | 10 | NE 25.9 | |
| Oggi h: 16:00 | Sereno | 28 | -3 | 12 | 1016 | 10 | NE 25.9 | |
| Oggi h: 15:00 | Sereno | 28 | -3 | 12 | 1016 | 10 | E/NE 25.9 | |
| Oggi h: 14:00 | Sereno | 27 | -2 | 14 | 1017 | 10 | NE 25.9 | |
| Oggi h: 13:00 | Sereno | 26 | -1 | 16 | 1017 | 10 | E/NE 29.6 | |
| Oggi h: 12:00 | Sereno | 25 | 0 | 19 | 1017 | 10 | NE 25.9 | |
| Oggi h: 11:00 | Sereno | 23 | 1 | 23 | 1017 | 10 | NE 25.9 | |
| Oggi h: 10:00 | Sereno | 22 | 1 | 24 | 1017 | 10 | N/NE 18.5 | |
| Oggi h: 09:00 | Sereno | 21 | 0 | 24 | 1016 | 10 | NE 22.2 | |
| Oggi h: 08:00 | Sereno | 20 | 2 | 30 | 1016 | 10 | N/NE 22.2 | |
| Oggi h: 07:00 | Sereno | 18 | 3 | 36 | 1016 | 10 | N 14.8 | |
| Oggi h: 06:00 | Sereno | 19 | 4 | 37 | 1015 | 10 | N/NE 14.8 | |
| Oggi h: 05:00 | Sereno | 20 | 4 | 34 | 1015 | 10 | N/NE 14.8 | |
| Oggi h: 04:00 | Sereno | 21 | 4 | 32 | 1014 | 10 | N/NE 18.5 | |
| Oggi h: 03:00 | Sereno | 22 | 5 | 32 | 1014 | 10 | N/NE 18.5 | |
| Oggi h: 02:00 | Sereno | 23 | 5 | 31 | 1013 | 10 | N/NE 22.2 | |
| Oggi h: 01:00 | Sereno | 24 | 6 | 31 | 1013 | 10 | N/NE 18.5 | |
| Oggi h: 00:00 | Sereno | 25 | 7 | 31 | 1013 | 10 | N/NE 18.5 | |



